Time;durP1;ratioP1;P1;durP2;ratioP2;P2;SDS_P1;SDS_P2;PMS_P1;PMS_P2;Temp;Humidity;BMP_temperature;BMP_pressure;BME280_temperature;BME280_humidity;BME280_pressure;Samples;Min_cycle;Max_cycle;Signal;HPM_P1;HPM_P2
2021/12/25 00:01:21;;;;;;;100.30;34.20;;;-3.30;99.90;;;;;;5059085;28;20222;-82
2021/12/25 00:03:48;;;;;;;48.50;20.90;;;-3.20;99.90;;;;;;5062773;28;20302;-82
2021/12/25 00:06:17;;;;;;;33.93;14.20;;;-3.20;99.90;;;;;;5064591;28;20314;-82
2021/12/25 00:08:43;;;;;;;53.67;25.30;;;-3.20;99.90;;;;;;5064434;28;20224;-82
2021/12/25 00:11:11;;;;;;;52.73;26.37;;;-3.30;99.90;;;;;;5060194;28;20572;-82
2021/12/25 00:13:38;;;;;;;9.60;5.47;;;-3.30;99.90;;;;;;5061519;28;20731;-82
2021/12/25 00:16:06;;;;;;;20.03;11.83;;;-3.30;99.90;;;;;;5063849;28;20235;-83
2021/12/25 00:18:33;;;;;;;8.37;5.67;;;-3.30;99.90;;;;;;5065262;28;20694;-82
2021/12/25 00:21:00;;;;;;;9.90;5.43;;;-3.30;99.90;;;;;;5063921;28;20224;-83
2021/12/25 00:23:28;;;;;;;6.10;2.80;;;-3.40;99.90;;;;;;5059613;28;20229;-83
2021/12/25 00:25:59;;;;;;;5.70;2.87;;;-3.40;99.90;;;;;;5062441;28;20712;-83
2021/12/25 00:28:48;;;;;;;5.00;2.47;;;-3.40;99.90;;;;;;5065315;28;20270;-84
2021/12/25 00:31:27;;;;;;;5.50;3.53;;;-3.50;99.90;;;;;;5059369;28;20213;-83
2021/12/25 00:33:58;;;;;;;6.17;2.90;;;-3.50;99.90;;;;;;5061283;28;20225;-84
2021/12/25 00:36:25;;;;;;;7.20;2.47;;;-3.60;99.90;;;;;;5063957;28;20231;-84
2021/12/25 00:38:55;;;;;;;6.93;2.63;;;-3.60;99.90;;;;;;5069241;28;20291;-82
2021/12/25 00:41:23;;;;;;;4.60;2.47;;;-3.70;99.90;;;;;;5065318;28;20312;-82
2021/12/25 00:43:51;;;;;;;5.80;2.80;;;-3.70;99.90;;;;;;5067035;28;20717;-82
2021/12/25 00:46:17;;;;;;;7.13;3.40;;;-3.80;99.90;;;;;;5062442;28;20303;-82
2021/12/25 00:48:45;;;;;;;6.20;3.00;;;-3.80;99.90;;;;;;5064707;28;20228;-83
2021/12/25 00:51:11;;;;;;;5.50;2.97;;;-3.80;99.90;;;;;;5061036;28;20696;-82
2021/12/25 00:53:38;;;;;;;5.53;2.50;;;-3.90;99.90;;;;;;5066274;28;20216;-83
2021/12/25 00:56:06;;;;;;;6.57;2.87;;;-3.90;99.90;;;;;;5061188;28;20223;-82
2021/12/25 00:58:33;;;;;;;10.37;5.70;;;-3.90;99.90;;;;;;5068699;28;20607;-81
2021/12/25 01:01:00;;;;;;;6.73;2.40;;;-3.90;99.90;;;;;;5062567;28;20900;-81
2021/12/25 01:03:27;;;;;;;5.67;3.37;;;-3.90;99.90;;;;;;5060119;28;20239;-82
2021/12/25 01:05:56;;;;;;;8.23;2.60;;;-3.90;99.90;;;;;;5064031;28;20217;-82
2021/12/25 01:08:23;;;;;;;5.00;2.60;;;-3.90;99.90;;;;;;5061061;28;20225;-82
2021/12/25 01:10:53;;;;;;;6.70;2.67;;;-3.90;99.90;;;;;;5063044;28;20779;-81
2021/12/25 01:13:26;;;;;;;5.13;2.67;;;-3.90;99.90;;;;;;5066711;28;20219;-83
2021/12/25 01:16:05;;;;;;;5.77;3.00;;;-3.90;99.90;;;;;;5066518;28;20303;-82
2021/12/25 01:21:48;;;;;;;6.27;2.30;;;-4.00;99.90;;;;;;5063474;28;20208;-82
2021/12/25 01:30:01;;;;;;;7.37;2.77;;;-4.10;99.90;;;;;;5062116;28;20219;-82
2021/12/25 01:33:01;;;;;;;5.20;2.60;;;-4.10;99.90;;;;;;5065012;28;20245;-83
2021/12/25 01:36:21;;;;;;;5.90;2.90;;;-4.20;99.90;;;;;;5057914;28;20230;-83
2021/12/25 01:39:10;;;;;;;6.20;2.70;;;-4.20;99.90;;;;;;5060914;28;20230;-82
2021/12/25 01:48:20;;;;;;;9.53;2.70;;;-4.30;99.90;;;;;;5059163;28;20241;-83
2021/12/25 01:50:48;;;;;;;5.03;2.80;;;-4.40;99.90;;;;;;5066851;28;20597;-82
2021/12/25 01:53:15;;;;;;;4.37;2.73;;;-4.40;99.90;;;;;;5055888;28;20228;-81
2021/12/25 01:55:42;;;;;;;5.63;2.70;;;-4.50;99.90;;;;;;5060502;28;20220;-82
2021/12/25 01:58:09;;;;;;;4.87;2.47;;;-4.40;99.90;;;;;;5060583;28;20618;-82
2021/12/25 02:00:40;;;;;;;5.77;2.60;;;-4.50;99.90;;;;;;5062661;28;20858;-82
2021/12/25 02:03:09;;;;;;;5.03;2.90;;;-4.50;99.90;;;;;;5063833;28;21933;-82
2021/12/25 02:05:36;;;;;;;7.10;3.17;;;-4.50;99.90;;;;;;5067626;28;20221;-82
2021/12/25 02:08:04;;;;;;;4.90;2.87;;;-4.50;99.90;;;;;;5055951;28;20220;-82
2021/12/25 02:10:31;;;;;;;5.77;3.03;;;-4.60;99.90;;;;;;5064760;28;20333;-83
2021/12/25 02:12:58;;;;;;;10.47;2.77;;;-4.60;99.90;;;;;;5053589;28;20300;-82
2021/12/25 02:15:27;;;;;;;7.03;3.10;;;-4.60;99.90;;;;;;5061541;28;20224;-81
2021/12/25 02:18:11;;;;;;;5.03;2.70;;;-4.60;99.90;;;;;;5065256;28;20246;-82
2021/12/25 02:21:06;;;;;;;5.57;2.97;;;-4.60;99.90;;;;;;5065969;28;20227;-81
2021/12/25 02:23:34;;;;;;;5.83;3.07;;;-4.70;99.90;;;;;;5060571;28;20220;-82
2021/12/25 02:26:02;;;;;;;5.33;3.57;;;-4.70;99.90;;;;;;5060509;28;21896;-82
2021/12/25 02:28:29;;;;;;;11.67;3.13;;;-4.70;99.90;;;;;;5071095;28;20664;-82
2021/12/25 02:30:59;;;;;;;5.77;3.10;;;-4.80;99.90;;;;;;5058919;28;20228;-82
2021/12/25 02:33:27;;;;;;;6.10;3.07;;;-4.80;99.90;;;;;;5074843;28;20267;-82
2021/12/25 02:35:55;;;;;;;6.93;2.93;;;-4.80;99.90;;;;;;5065321;28;20260;-82
2021/12/25 02:38:24;;;;;;;5.93;2.90;;;-4.80;99.90;;;;;;5064052;28;20315;-82
2021/12/25 02:40:51;;;;;;;7.00;2.83;;;-4.80;99.90;;;;;;5068033;28;20213;-82
2021/12/25 02:43:20;;;;;;;6.07;2.60;;;-4.90;99.90;;;;;;5061288;28;20321;-82
2021/12/25 02:45:47;;;;;;;7.30;2.53;;;-4.80;99.90;;;;;;5079969;28;20273;-82
2021/12/25 02:48:17;;;;;;;6.37;3.20;;;-4.80;99.90;;;;;;5057598;28;20620;-82
2021/12/25 02:50:45;;;;;;;6.10;2.80;;;-4.90;99.90;;;;;;5063128;28;20216;-82
2021/12/25 02:53:13;;;;;;;5.47;3.17;;;-4.90;99.90;;;;;;5059321;28;20220;-82
2021/12/25 02:55:43;;;;;;;5.73;3.40;;;-4.90;99.90;;;;;;5066735;28;20220;-82
2021/12/25 02:58:10;;;;;;;4.23;3.23;;;-4.90;99.90;;;;;;5062498;28;20227;-81
2021/12/25 03:00:40;;;;;;;4.23;2.70;;;-4.90;99.90;;;;;;5065506;28;20294;-83
2021/12/25 03:03:08;;;;;;;4.43;2.80;;;-4.90;99.90;;;;;;5066430;28;20219;-81
2021/12/25 03:05:35;;;;;;;7.60;4.03;;;-4.80;99.90;;;;;;5057487;28;20656;-82
2021/12/25 03:08:02;;;;;;;8.20;3.03;;;-4.80;99.90;;;;;;5061248;28;20231;-81
2021/12/25 03:10:36;;;;;;;9.77;3.70;;;-4.80;99.90;;;;;;5065414;28;20231;-82
2021/12/25 03:13:18;;;;;;;6.57;3.23;;;-4.80;99.90;;;;;;5057682;28;20228;-81
2021/12/25 03:15:47;;;;;;;5.87;3.17;;;-4.80;99.90;;;;;;5061089;28;20303;-82
2021/12/25 03:18:16;;;;;;;5.43;3.20;;;-4.80;99.90;;;;;;5058168;28;20595;-83
2021/12/25 03:20:45;;;;;;;9.13;3.40;;;-4.90;99.90;;;;;;5066283;28;20306;-82
2021/12/25 03:23:13;;;;;;;10.77;3.27;;;-4.90;99.90;;;;;;5065371;28;20224;-82
2021/12/25 03:25:40;;;;;;;7.40;3.23;;;-4.90;99.90;;;;;;5061416;28;20224;-82
2021/12/25 03:28:09;;;;;;;5.70;3.50;;;-4.90;99.90;;;;;;5059163;28;20247;-82
2021/12/25 03:30:39;;;;;;;7.70;3.90;;;-4.90;99.90;;;;;;5064454;28;20307;-82
2021/12/25 03:33:06;;;;;;;6.83;2.90;;;-5.00;99.90;;;;;;5062550;28;20220;-84
2021/12/25 03:35:34;;;;;;;5.63;3.20;;;-5.00;99.90;;;;;;5064968;28;20305;-83
2021/12/25 03:38:01;;;;;;;5.30;3.07;;;-5.00;99.90;;;;;;5057993;28;20323;-83
2021/12/25 03:40:28;;;;;;;7.07;3.03;;;-5.00;99.90;;;;;;5064073;28;20223;-83
2021/12/25 03:42:55;;;;;;;5.47;3.17;;;-5.00;99.90;;;;;;5064197;28;20227;-83
2021/12/25 03:45:24;;;;;;;7.60;2.97;;;-5.00;99.90;;;;;;5055450;28;20303;-82
2021/12/25 03:48:02;;;;;;;10.07;3.87;;;-5.00;99.90;;;;;;5064370;28;20358;-83
2021/12/25 03:53:25;;;;;;;6.63;3.20;;;-5.10;99.90;;;;;;5064936;28;20337;-81
2021/12/25 03:58:37;;;;;;;3.97;3.30;;;-5.20;99.90;;;;;;5066266;28;20269;-80
2021/12/25 04:01:24;;;;;;;5.57;3.20;;;-5.20;99.90;;;;;;5065073;28;20310;-79
2021/12/25 04:04:04;;;;;;;6.80;3.20;;;-5.30;99.90;;;;;;5064452;28;20668;-81
2021/12/25 04:06:32;;;;;;;6.53;3.10;;;-5.30;99.90;;;;;;5069678;28;20232;-82
2021/12/25 04:09:01;;;;;;;7.17;3.10;;;-5.30;99.90;;;;;;5077458;28;20251;-82
2021/12/25 04:11:30;;;;;;;5.93;2.93;;;-5.30;99.90;;;;;;5069625;28;20315;-82
2021/12/25 04:13:58;;;;;;;74.33;7.47;;;-5.40;99.90;;;;;;5067208;28;20300;-82
2021/12/25 04:16:29;;;;;;;7.17;3.60;;;-5.40;99.90;;;;;;5066069;28;20220;-82
2021/12/25 04:18:57;;;;;;;5.10;3.60;;;-5.40;99.90;;;;;;5069177;28;20217;-82
2021/12/25 04:21:24;;;;;;;15.30;4.03;;;-5.40;99.90;;;;;;5068926;28;20239;-84
2021/12/25 04:23:52;;;;;;;6.10;3.47;;;-5.40;99.90;;;;;;5063316;28;20707;-83
2021/12/25 04:26:20;;;;;;;9.93;3.63;;;-5.40;99.90;;;;;;5068955;28;20755;-84
2021/12/25 04:29:00;;;;;;;7.03;3.13;;;-5.30;99.90;;;;;;5086163;28;20737;-84
2021/12/25 04:31:35;;;;;;;4.83;3.37;;;-5.30;99.90;;;;;;5059391;28;20249;-84
2021/12/25 04:42:50;;;;;;;5.33;3.20;;;-5.40;99.90;;;;;;5067553;28;20993;-82
2021/12/25 04:48:49;;;;;;;7.50;3.67;;;-5.40;99.90;;;;;;5061098;28;20288;-83
2021/12/25 05:02:06;;;;;;;6.17;3.33;;;-5.50;99.90;;;;;;5051890;28;20255;-82
2021/12/25 05:05:01;;;;;;;8.33;3.77;;;-5.60;99.90;;;;;;5061740;28;20226;-82
2021/12/25 05:07:39;;;;;;;6.43;3.30;;;-5.60;99.90;;;;;;5059632;28;20225;-83
2021/12/25 05:10:06;;;;;;;4.87;3.23;;;-5.60;99.90;;;;;;5068640;28;20317;-82
2021/12/25 05:12:33;;;;;;;6.83;3.97;;;-5.70;99.90;;;;;;5062414;28;20224;-82
2021/12/25 05:15:00;;;;;;;8.70;3.70;;;-5.60;99.90;;;;;;5067746;28;20308;-82
2021/12/25 05:17:27;;;;;;;6.13;3.03;;;-5.60;99.90;;;;;;5067299;28;20220;-83
2021/12/25 05:19:55;;;;;;;9.33;3.80;;;-5.60;99.90;;;;;;5067526;28;20310;-83
2021/12/25 05:22:23;;;;;;;9.53;3.97;;;-5.60;99.90;;;;;;5063684;28;20253;-83
2021/12/25 05:24:51;;;;;;;7.30;3.40;;;-5.60;99.90;;;;;;5079091;28;20212;-83
2021/12/25 05:27:18;;;;;;;6.10;3.33;;;-5.60;99.90;;;;;;5065827;28;20215;-82
2021/12/25 05:29:47;;;;;;;6.57;3.10;;;-5.60;99.90;;;;;;5068255;28;20298;-83
2021/12/25 05:32:17;;;;;;;9.53;3.40;;;-5.50;99.90;;;;;;5064902;28;20754;-82
2021/12/25 05:35:02;;;;;;;6.67;3.30;;;-5.50;99.90;;;;;;5065329;28;20319;-81
2021/12/25 05:37:48;;;;;;;78.33;7.80;;;-5.50;99.90;;;;;;5066027;28;20244;-83
2021/12/25 05:40:34;;;;;;;12.97;3.67;;;-5.50;99.90;;;;;;5063342;28;20441;-82
2021/12/25 05:43:01;;;;;;;6.30;3.60;;;-5.40;99.90;;;;;;5059069;28;20213;-83
2021/12/25 05:45:28;;;;;;;5.53;3.17;;;-5.50;99.90;;;;;;5062433;28;20212;-83
2021/12/25 05:48:04;;;;;;;21.60;5.07;;;-5.50;99.90;;;;;;5067916;28;20225;-82
2021/12/25 05:50:43;;;;;;;10.63;3.90;;;-5.40;99.90;;;;;;5064775;28;20224;-82
2021/12/25 05:53:30;;;;;;;6.37;3.70;;;-5.40;99.90;;;;;;5066807;28;20265;-82
2021/12/25 05:56:16;;;;;;;4.43;3.03;;;-5.30;99.90;;;;;;5067428;28;20300;-82
2021/12/25 05:58:45;;;;;;;10.33;3.50;;;-5.30;99.90;;;;;;5069714;28;20311;-82
2021/12/25 06:01:22;;;;;;;7.73;2.90;;;-5.20;99.90;;;;;;5064854;28;20224;-83
2021/12/25 06:03:48;;;;;;;6.77;3.10;;;-5.20;99.90;;;;;;5069310;28;20275;-83
2021/12/25 06:06:15;;;;;;;8.27;3.07;;;-5.20;99.90;;;;;;5062826;28;20274;-84
2021/12/25 06:08:43;;;;;;;9.13;3.10;;;-5.10;99.90;;;;;;5067991;28;20215;-84
2021/12/25 06:11:10;;;;;;;6.57;2.93;;;-5.10;99.90;;;;;;5067318;28;20276;-85
2021/12/25 06:13:44;;;;;;;9.23;3.27;;;-5.10;99.90;;;;;;5059357;28;20222;-85
2021/12/25 06:16:12;;;;;;;8.87;2.90;;;-5.10;99.90;;;;;;5064543;28;20215;-84
2021/12/25 06:18:59;;;;;;;11.97;3.43;;;-5.10;99.90;;;;;;5063391;28;20298;-84
2021/12/25 06:21:26;;;;;;;12.73;3.10;;;-5.00;99.90;;;;;;5068430;28;20220;-86
2021/12/25 06:24:15;;;;;;;3.40;2.53;;;-5.00;99.90;;;;;;5066287;28;20625;-86
2021/12/25 06:27:00;;;;;;;4.60;2.40;;;-5.00;99.90;;;;;;5068692;28;20234;-85
2021/12/25 06:29:39;;;;;;;6.33;2.63;;;-5.00;99.90;;;;;;5063059;28;20224;-85
2021/12/25 06:32:19;;;;;;;4.27;2.83;;;-5.00;99.90;;;;;;5066778;28;20227;-84
2021/12/25 06:35:15;;;;;;;4.63;2.70;;;-5.00;99.90;;;;;;5063795;28;20224;-84
2021/12/25 06:38:02;;;;;;;5.43;2.60;;;-5.00;99.90;;;;;;5067622;28;20661;-84
2021/12/25 06:40:51;;;;;;;4.10;2.60;;;-4.90;99.90;;;;;;5069981;28;20231;-84
2021/12/25 06:43:17;;;;;;;5.70;2.60;;;-4.90;99.90;;;;;;5067040;28;20220;-84
2021/12/25 06:45:44;;;;;;;27.87;12.30;;;-4.90;99.90;;;;;;5062897;28;20226;-85
2021/12/25 06:48:11;;;;;;;114.17;44.93;;;-4.90;99.90;;;;;;5060267;28;20217;-85
2021/12/25 06:51:04;;;;;;;30.03;15.20;;;-4.90;99.90;;;;;;5062994;28;20705;-86
2021/12/25 06:53:53;;;;;;;77.40;42.63;;;-4.90;99.90;;;;;;5066439;28;20221;-84
2021/12/25 06:56:40;;;;;;;23.53;17.83;;;-4.90;99.90;;;;;;5060394;28;20241;-86
2021/12/25 06:59:15;;;;;;;19.47;13.17;;;-4.90;99.90;;;;;;5065688;28;20714;-84
2021/12/25 07:01:44;;;;;;;15.50;8.30;;;-5.00;99.90;;;;;;5057833;28;20776;-83
2021/12/25 07:04:31;;;;;;;22.43;6.33;;;-5.00;99.90;;;;;;5058258;28;20347;-84
2021/12/25 07:07:33;;;;;;;35.60;5.90;;;-5.00;99.90;;;;;;5053762;28;20227;-83
2021/12/25 07:10:17;;;;;;;12.10;4.73;;;-5.10;99.90;;;;;;5061847;28;20228;-84
2021/12/25 07:13:15;;;;;;;9.47;6.60;;;-5.10;99.90;;;;;;5048240;28;20234;-84
2021/12/25 07:16:08;;;;;;;9.57;5.17;;;-5.10;99.90;;;;;;5056596;28;20661;-84
2021/12/25 07:19:15;;;;;;;8.23;3.83;;;-5.10;99.90;;;;;;5046765;28;20360;-84
2021/12/25 07:22:00;;;;;;;6.80;4.10;;;-5.10;99.90;;;;;;5062534;28;20350;-84
2021/12/25 07:24:36;;;;;;;5.80;3.50;;;-5.10;99.90;;;;;;5062503;28;20245;-84
2021/12/25 07:27:29;;;;;;;6.90;3.20;;;-5.10;99.90;;;;;;5064035;28;20231;-84
2021/12/25 07:29:58;;;;;;;4.37;2.73;;;-5.10;99.90;;;;;;5058588;28;20308;-84
2021/12/25 07:32:25;;;;;;;6.93;2.67;;;-5.20;99.90;;;;;;5061821;28;20585;-84
2021/12/25 07:34:52;;;;;;;10.43;3.50;;;-5.10;99.90;;;;;;5060892;28;20216;-83
2021/12/25 07:37:19;;;;;;;4.20;2.20;;;-5.10;99.90;;;;;;5061968;28;20238;-84
2021/12/25 07:39:47;;;;;;;20.87;11.37;;;-5.10;99.90;;;;;;5061566;28;20258;-84
2021/12/25 07:42:14;;;;;;;19.53;12.30;;;-5.10;99.90;;;;;;5065145;28;20224;-84
2021/12/25 07:45:10;;;;;;;10.63;5.23;;;-5.10;99.90;;;;;;5056069;28;20256;-84
2021/12/25 07:47:41;;;;;;;13.53;5.43;;;-5.10;99.90;;;;;;5061198;28;20213;-86
2021/12/25 07:50:10;;;;;;;9.27;3.30;;;-5.10;99.90;;;;;;5059102;28;20305;-85
2021/12/25 07:52:37;;;;;;;10.67;8.17;;;-5.10;99.90;;;;;;5057908;28;20220;-85
2021/12/25 07:55:04;;;;;;;8.50;4.20;;;-5.10;99.90;;;;;;5068135;28;20235;-84
2021/12/25 07:57:31;;;;;;;16.97;12.83;;;-5.10;99.90;;;;;;5068031;28;20224;-85
2021/12/25 07:59:58;;;;;;;12.33;7.17;;;-5.00;99.90;;;;;;5069538;28;20239;-86
2021/12/25 08:02:26;;;;;;;7.37;4.10;;;-5.10;99.90;;;;;;5065583;28;20228;-86
2021/12/25 08:04:53;;;;;;;5.53;2.30;;;-5.00;99.90;;;;;;5062550;28;20233;-85
2021/12/25 08:07:19;;;;;;;6.57;3.10;;;-5.00;99.90;;;;;;5069901;28;20340;-86
2021/12/25 08:09:46;;;;;;;5.63;2.90;;;-5.00;99.90;;;;;;5068252;28;20211;-84
2021/12/25 08:12:13;;;;;;;6.93;3.23;;;-5.00;99.90;;;;;;5066012;28;20303;-84
2021/12/25 08:14:40;;;;;;;10.73;2.97;;;-5.00;99.90;;;;;;5066167;28;20214;-84
2021/12/25 08:17:06;;;;;;;3.00;2.30;;;-4.90;99.90;;;;;;5065795;28;20499;-84
2021/12/25 08:19:58;;;;;;;10.60;3.10;;;-4.90;99.90;;;;;;5039564;28;20260;-86
2021/12/25 08:22:44;;;;;;;5.60;3.50;;;-4.90;99.90;;;;;;5060169;28;20222;-85
2021/12/25 08:25:29;;;;;;;8.60;3.77;;;-4.80;99.90;;;;;;5064376;28;20219;-85
2021/12/25 08:28:15;;;;;;;9.03;3.03;;;-4.60;99.90;;;;;;5070615;28;20231;-85
2021/12/25 08:31:00;;;;;;;6.30;3.20;;;-4.20;99.90;;;;;;5066183;28;20832;-84
2021/12/25 08:33:46;;;;;;;6.20;3.07;;;-3.70;99.90;;;;;;5060043;28;20312;-82
2021/12/25 08:36:33;;;;;;;5.30;2.60;;;-3.20;99.90;;;;;;5064023;28;20227;-85
2021/12/25 08:39:00;;;;;;;6.20;2.70;;;-2.50;99.90;;;;;;5064053;28;20235;-82
2021/12/25 08:41:30;;;;;;;6.37;2.77;;;-1.90;99.90;;;;;;5058347;28;20695;-83
2021/12/25 08:43:59;;;;;;;6.57;3.30;;;-1.20;99.90;;;;;;5066218;28;20226;-83
2021/12/25 08:46:43;;;;;;;5.00;2.10;;;-0.50;99.90;;;;;;5058191;28;20214;-84
2021/12/25 08:49:14;;;;;;;2.93;1.63;;;0.10;99.90;;;;;;5063480;28;20223;-84
2021/12/25 08:51:42;;;;;;;3.77;2.60;;;0.80;99.90;;;;;;5058155;28;20239;-84
2021/12/25 08:54:09;;;;;;;4.17;3.53;;;1.40;99.90;;;;;;5066498;28;20622;-84
2021/12/25 08:56:36;;;;;;;4.40;3.43;;;1.90;99.90;;;;;;5066371;28;20219;-85
2021/12/25 08:59:02;;;;;;;9.03;5.10;;;2.40;99.90;;;;;;5063491;28;20318;-85
2021/12/25 09:01:29;;;;;;;21.53;14.13;;;2.80;99.90;;;;;;5069340;28;20218;-85
2021/12/25 09:03:56;;;;;;;16.80;10.30;;;3.20;99.90;;;;;;5068566;28;20332;-82
2021/12/25 09:06:23;;;;;;;12.30;6.63;;;3.60;99.90;;;;;;5063927;28;20671;-84
2021/12/25 09:08:51;;;;;;;22.53;16.10;;;3.90;99.80;;;;;;5062863;28;20229;-84
2021/12/25 09:11:20;;;;;;;12.00;8.60;;;4.30;99.40;;;;;;5069841;28;20215;-84
2021/12/25 09:13:47;;;;;;;9.47;6.27;;;4.60;99.40;;;;;;5072425;28;20225;-84
2021/12/25 09:16:14;;;;;;;6.57;2.87;;;4.90;99.40;;;;;;5067041;28;20216;-84
2021/12/25 09:18:41;;;;;;;3.30;1.90;;;5.20;99.30;;;;;;5069909;28;20244;-85
2021/12/25 09:21:08;;;;;;;6.50;2.57;;;5.50;99.30;;;;;;5055999;28;20226;-86
2021/12/25 09:23:35;;;;;;;4.20;2.03;;;5.90;98.90;;;;;;5060629;28;20248;-83
2021/12/25 09:26:03;;;;;;;5.10;2.47;;;6.10;98.40;;;;;;5062321;28;20221;-82
2021/12/25 09:28:30;;;;;;;12.13;3.90;;;6.40;98.00;;;;;;5065285;28;20215;-83
2021/12/25 09:30:57;;;;;;;6.30;2.70;;;6.60;98.00;;;;;;5070556;28;20237;-84
2021/12/25 09:33:24;;;;;;;4.53;2.07;;;6.70;97.50;;;;;;5063241;28;20223;-84
2021/12/25 09:35:51;;;;;;;3.23;1.93;;;6.90;97.40;;;;;;5064145;28;20302;-81
2021/12/25 09:38:18;;;;;;;2.20;1.37;;;7.00;97.10;;;;;;5064513;28;20234;-81
2021/12/25 09:40:44;;;;;;;3.20;2.00;;;7.10;97.30;;;;;;5064060;28;20215;-81
2021/12/25 09:43:13;;;;;;;2.93;1.80;;;7.20;97.20;;;;;;5063083;28;20314;-81
2021/12/25 09:45:40;;;;;;;3.10;1.10;;;7.30;96.80;;;;;;5065194;28;20225;-81
2021/12/25 09:48:07;;;;;;;3.80;1.80;;;7.50;97.00;;;;;;5066779;28;20585;-81
2021/12/25 09:50:34;;;;;;;3.70;2.13;;;7.60;96.70;;;;;;5063896;28;20236;-82
2021/12/25 09:53:05;;;;;;;2.40;2.20;;;7.80;96.70;;;;;;5065679;28;20219;-82
2021/12/25 09:55:32;;;;;;;6.27;2.93;;;8.00;96.10;;;;;;5061186;28;21034;-81
2021/12/25 09:57:59;;;;;;;2.40;1.90;;;8.20;96.50;;;;;;5067962;28;20215;-81
2021/12/25 10:00:29;;;;;;;4.50;2.80;;;8.40;96.50;;;;;;5062190;28;20208;-82
2021/12/25 10:02:57;;;;;;;4.00;2.73;;;8.60;95.90;;;;;;5065948;28;20222;-84
2021/12/25 10:05:30;;;;;;;3.37;2.00;;;8.80;96.00;;;;;;5065398;28;20219;-82
2021/12/25 10:08:06;;;;;;;5.43;1.87;;;8.90;95.20;;;;;;5055291;28;20232;-82
2021/12/25 10:10:41;;;;;;;2.43;1.67;;;9.10;94.70;;;;;;5066479;28;20215;-82
2021/12/25 10:13:19;;;;;;;5.20;2.10;;;9.20;95.00;;;;;;5060916;28;20255;-82
2021/12/25 10:15:48;;;;;;;2.83;2.30;;;9.30;94.50;;;;;;5063899;28;20224;-82
2021/12/25 10:18:14;;;;;;;2.73;1.90;;;9.40;94.70;;;;;;5083123;28;20318;-82
2021/12/25 10:20:42;;;;;;;4.33;2.37;;;9.50;94.70;;;;;;5064024;28;20220;-83
2021/12/25 10:23:13;;;;;;;4.03;2.73;;;9.50;95.00;;;;;;5052132;28;20213;-82
2021/12/25 10:25:45;;;;;;;3.87;2.40;;;9.60;94.90;;;;;;5078682;28;20305;-82
2021/12/25 10:28:13;;;;;;;7.27;3.13;;;9.70;93.60;;;;;;5066049;28;20224;-82
2021/12/25 10:30:51;;;;;;;6.90;3.33;;;9.70;94.20;;;;;;5063811;28;20228;-82
2021/12/25 10:33:26;;;;;;;5.20;2.97;;;9.70;93.30;;;;;;5058626;28;20220;-82
2021/12/25 10:35:53;;;;;;;5.23;3.40;;;9.70;92.80;;;;;;5058884;28;20695;-82
2021/12/25 10:38:22;;;;;;;6.33;3.63;;;9.60;92.70;;;;;;5059771;28;20230;-82
2021/12/25 10:40:49;;;;;;;9.73;4.50;;;9.50;93.40;;;;;;5065583;28;20220;-81
2021/12/25 10:43:22;;;;;;;7.37;4.93;;;9.40;92.00;;;;;;5063047;28;20227;-84
2021/12/25 10:46:01;;;;;;;6.90;4.40;;;9.30;93.10;;;;;;5059212;28;20277;-85
2021/12/25 10:48:30;;;;;;;7.13;3.90;;;9.20;93.50;;;;;;5052024;28;20242;-81
2021/12/25 10:50:58;;;;;;;6.57;3.57;;;9.20;94.10;;;;;;5065760;28;20285;-81
2021/12/25 10:53:29;;;;;;;7.17;3.53;;;9.20;94.30;;;;;;5062782;28;20223;-82
2021/12/25 10:56:06;;;;;;;4.57;2.90;;;9.20;94.50;;;;;;5063803;28;20223;-81
2021/12/25 10:58:33;;;;;;;4.53;3.13;;;9.20;93.70;;;;;;5064684;28;20223;-82
2021/12/25 11:01:01;;;;;;;6.63;3.07;;;9.20;94.50;;;;;;5065527;28;20228;-82
2021/12/25 11:03:31;;;;;;;5.80;2.90;;;9.30;94.40;;;;;;5062395;28;20248;-82
2021/12/25 11:06:04;;;;;;;4.50;3.10;;;9.30;94.50;;;;;;5059834;28;20220;-82
2021/12/25 11:08:30;;;;;;;5.20;3.20;;;9.30;93.00;;;;;;5059722;28;20238;-82
2021/12/25 11:11:00;;;;;;;4.03;2.83;;;9.30;93.40;;;;;;5064591;28;20238;-82
2021/12/25 11:13:30;;;;;;;5.23;3.17;;;9.20;93.10;;;;;;5063209;28;20246;-81
2021/12/25 11:16:04;;;;;;;4.00;3.00;;;9.20;93.40;;;;;;5062185;28;20290;-81
2021/12/25 11:18:52;;;;;;;4.67;3.30;;;9.00;92.70;;;;;;5059560;28;20222;-82
2021/12/25 11:21:19;;;;;;;5.17;2.70;;;8.90;92.30;;;;;;5054558;28;20947;-82
2021/12/25 11:23:47;;;;;;;3.50;2.60;;;8.80;93.20;;;;;;5062752;28;20255;-82
2021/12/25 11:26:14;;;;;;;4.63;2.40;;;8.70;92.70;;;;;;5061605;28;20224;-82
2021/12/25 11:28:43;;;;;;;6.60;2.70;;;8.60;93.40;;;;;;5063899;28;20866;-82
2021/12/25 11:31:10;;;;;;;3.53;2.40;;;8.50;93.60;;;;;;5058566;28;20227;-82
2021/12/25 11:33:40;;;;;;;4.33;2.47;;;8.40;93.70;;;;;;5065214;28;20224;-82
2021/12/25 11:36:07;;;;;;;3.63;2.10;;;8.40;93.60;;;;;;5056846;28;20239;-82
2021/12/25 11:38:34;;;;;;;3.67;2.57;;;8.40;94.10;;;;;;5060830;28;20783;-82
2021/12/25 11:41:06;;;;;;;3.07;2.13;;;8.30;93.80;;;;;;5065752;28;20249;-82
2021/12/25 11:43:40;;;;;;;3.37;2.13;;;8.30;93.20;;;;;;5064393;28;20284;-82
2021/12/25 11:46:07;;;;;;;3.93;2.27;;;8.40;93.50;;;;;;5064996;28;20296;-82
2021/12/25 11:48:35;;;;;;;3.47;2.43;;;8.30;94.10;;;;;;5065149;28;20247;-82
2021/12/25 11:51:04;;;;;;;4.60;2.37;;;8.30;93.90;;;;;;5062191;28;20871;-82
2021/12/25 11:53:47;;;;;;;4.60;2.70;;;8.40;94.30;;;;;;5054701;28;20826;-82
2021/12/25 11:56:32;;;;;;;5.57;2.33;;;8.40;94.60;;;;;;5065587;28;20220;-82
2021/12/25 11:59:01;;;;;;;3.77;1.97;;;8.40;94.50;;;;;;5059561;28;20215;-82
2021/12/25 12:01:32;;;;;;;3.87;2.40;;;8.50;94.40;;;;;;5060869;28;20224;-81
2021/12/25 12:04:01;;;;;;;4.53;2.27;;;8.50;93.50;;;;;;5050370;28;20330;-82
2021/12/25 12:06:57;;;;;;;5.23;2.57;;;8.50;93.80;;;;;;5063343;28;20234;-82
2021/12/25 12:09:58;;;;;;;4.43;2.40;;;8.50;93.60;;;;;;5054396;28;20252;-82
2021/12/25 12:12:43;;;;;;;4.47;2.90;;;8.50;93.70;;;;;;5061299;28;20354;-81
2021/12/25 12:15:45;;;;;;;6.07;4.70;;;8.50;94.00;;;;;;5067357;28;20295;-81
2021/12/25 12:18:39;;;;;;;6.80;3.10;;;8.40;92.60;;;;;;5063885;28;20242;-82
2021/12/25 12:21:11;;;;;;;4.60;3.00;;;8.30;92.70;;;;;;5054802;28;20254;-82
2021/12/25 12:23:52;;;;;;;3.57;2.30;;;8.20;93.40;;;;;;5064164;28;20359;-81
2021/12/25 12:26:53;;;;;;;4.47;2.47;;;8.10;93.20;;;;;;5067555;28;20410;-83
2021/12/25 12:29:42;;;;;;;7.00;3.07;;;8.00;93.20;;;;;;5062443;28;20374;-80
2021/12/25 12:32:33;;;;;;;3.50;2.50;;;7.90;93.70;;;;;;5063302;28;20238;-80
2021/12/25 12:35:01;;;;;;;4.93;2.60;;;7.80;93.60;;;;;;5058125;28;20215;-80
2021/12/25 12:37:30;;;;;;;3.33;1.97;;;7.80;94.00;;;;;;5060489;28;20241;-80
2021/12/25 12:40:24;;;;;;;3.93;2.20;;;7.70;93.90;;;;;;5067984;28;20215;-79
2021/12/25 12:42:55;;;;;;;4.60;2.23;;;7.60;93.60;;;;;;5063641;28;20228;-80
2021/12/25 12:45:25;;;;;;;4.60;2.30;;;7.60;93.90;;;;;;5060859;28;20246;-80
2021/12/25 12:48:12;;;;;;;4.93;2.50;;;7.60;93.80;;;;;;5061873;28;20222;-81
2021/12/25 12:50:40;;;;;;;3.27;2.17;;;7.50;93.50;;;;;;5060537;28;20579;-80
2021/12/25 12:53:09;;;;;;;3.93;2.07;;;7.50;93.80;;;;;;5060744;28;20216;-80
2021/12/25 12:55:39;;;;;;;3.53;1.97;;;7.50;94.00;;;;;;5060062;28;20231;-80
2021/12/25 12:58:13;;;;;;;4.27;2.30;;;7.40;93.70;;;;;;5063345;28;20220;-80
2021/12/25 13:00:41;;;;;;;3.43;1.97;;;7.30;93.60;;;;;;5059663;28;20326;-80
2021/12/25 13:03:09;;;;;;;4.07;2.27;;;7.20;93.70;;;;;;5058837;28;20321;-80
2021/12/25 13:05:39;;;;;;;4.17;2.33;;;7.10;93.80;;;;;;5061947;28;20226;-80
2021/12/25 13:08:14;;;;;;;4.63;2.77;;;6.90;93.60;;;;;;5066433;28;20283;-80
2021/12/25 13:10:50;;;;;;;4.97;2.00;;;6.70;93.50;;;;;;5062799;28;20220;-79
2021/12/25 13:13:20;;;;;;;6.03;2.30;;;6.50;93.60;;;;;;5060690;28;20312;-80
2021/12/25 13:15:49;;;;;;;3.90;1.50;;;6.30;93.60;;;;;;5061915;28;20250;-80
2021/12/25 13:18:17;;;;;;;4.77;1.97;;;6.20;93.40;;;;;;5060769;28;20293;-80
2021/12/25 13:20:45;;;;;;;6.60;2.13;;;6.00;93.20;;;;;;5062772;28;20270;-79
2021/12/25 13:23:15;;;;;;;3.37;1.70;;;5.70;93.30;;;;;;5061139;28;20256;-80
2021/12/25 13:25:49;;;;;;;5.70;1.93;;;5.50;93.50;;;;;;5066267;28;20232;-81
2021/12/25 13:28:17;;;;;;;5.23;2.27;;;5.40;93.70;;;;;;5058345;28;20379;-80
2021/12/25 13:30:49;;;;;;;4.20;1.70;;;5.20;93.90;;;;;;5063431;28;20256;-80
2021/12/25 13:33:19;;;;;;;5.00;1.83;;;5.00;94.00;;;;;;5060358;28;20218;-81
2021/12/25 13:35:47;;;;;;;3.43;1.70;;;4.90;94.10;;;;;;5060700;28;20296;-82
2021/12/25 13:38:14;;;;;;;2.57;1.40;;;4.80;94.10;;;;;;5058296;28;20236;-80
2021/12/25 13:40:48;;;;;;;4.33;1.70;;;4.70;94.30;;;;;;5062966;28;20279;-80
2021/12/25 13:43:16;;;;;;;4.77;2.00;;;4.60;94.20;;;;;;5064175;28;20230;-81
2021/12/25 13:45:44;;;;;;;3.07;1.47;;;4.50;94.10;;;;;;5066400;28;20221;-80
2021/12/25 13:48:11;;;;;;;3.97;2.40;;;4.30;94.10;;;;;;5058630;28;20254;-81
2021/12/25 13:50:37;;;;;;;8.80;3.40;;;4.30;94.30;;;;;;5064746;28;20291;-80
2021/12/25 13:53:11;;;;;;;10.67;6.47;;;4.10;94.20;;;;;;5065993;28;20221;-80
2021/12/25 13:55:37;;;;;;;5.47;1.90;;;4.00;94.40;;;;;;5064744;28;20827;-80
2021/12/25 13:58:08;;;;;;;6.03;1.97;;;3.90;94.50;;;;;;5056957;28;20246;-80
2021/12/25 14:00:38;;;;;;;4.90;2.03;;;3.80;94.60;;;;;;5059699;28;20240;-80